createdAt,value
2018-05-26T00:00:26.590Z,17.17
2018-05-26T00:02:54.004Z,17.15
2018-05-26T00:05:21.430Z,17.11
2018-05-26T00:07:48.837Z,17.09
2018-05-26T00:10:16.256Z,17.08
2018-05-26T00:12:43.669Z,17.06
2018-05-26T00:15:11.068Z,17.02
2018-05-26T00:17:38.488Z,17.01
2018-05-26T00:20:05.896Z,16.99
2018-05-26T00:22:33.321Z,16.97
2018-05-26T00:25:00.740Z,16.95
2018-05-26T00:27:28.160Z,16.92
2018-05-26T00:29:55.581Z,16.89
2018-05-26T00:32:23.004Z,16.87
2018-05-26T00:34:50.409Z,16.85
2018-05-26T00:37:17.825Z,16.82
2018-05-26T00:39:45.245Z,16.77
2018-05-26T00:42:12.659Z,16.73
2018-05-26T00:44:40.080Z,16.69
2018-05-26T00:47:07.506Z,16.65
2018-05-26T00:49:34.917Z,16.60
2018-05-26T00:52:02.337Z,16.54
2018-05-26T00:54:29.740Z,16.50
2018-05-26T00:56:57.166Z,16.47
2018-05-26T00:59:24.582Z,16.48
2018-05-26T01:01:51.993Z,16.46
2018-05-26T01:04:19.397Z,16.42
2018-05-26T01:06:46.821Z,16.40
2018-05-26T01:09:14.224Z,16.36
2018-05-26T01:11:41.644Z,16.34
2018-05-26T01:14:09.052Z,16.34
2018-05-26T01:16:36.472Z,16.33
2018-05-26T01:19:03.889Z,16.31
2018-05-26T01:21:31.317Z,16.27
2018-05-26T01:23:58.723Z,16.25
2018-05-26T01:26:26.151Z,16.23
2018-05-26T01:28:53.563Z,16.21
2018-05-26T01:31:20.985Z,16.19
2018-05-26T01:33:48.385Z,16.14
2018-05-26T01:36:15.801Z,16.10
2018-05-26T01:38:43.222Z,16.05
2018-05-26T01:41:10.629Z,16.03
2018-05-26T01:43:38.053Z,16.01
2018-05-26T01:46:05.466Z,15.92
2018-05-26T01:48:32.897Z,15.85
2018-05-26T01:51:00.313Z,15.78
2018-05-26T01:53:27.740Z,15.77
2018-05-26T01:55:55.152Z,15.70
2018-05-26T01:58:22.575Z,15.68
2018-05-26T02:00:49.985Z,15.70
2018-05-26T02:03:17.412Z,15.71
2018-05-26T02:05:44.828Z,15.69
2018-05-26T02:08:12.255Z,15.67
2018-05-26T02:10:39.668Z,15.68
2018-05-26T02:13:07.100Z,15.65
2018-05-26T02:15:34.517Z,15.66
2018-05-26T02:18:01.932Z,15.64
2018-05-26T02:20:29.380Z,15.62
2018-05-26T02:22:56.837Z,15.62
2018-05-26T02:25:24.252Z,15.59
2018-05-26T02:27:51.672Z,15.58
2018-05-26T02:30:19.200Z,15.57
2018-05-26T02:32:46.628Z,15.56
2018-05-26T02:35:14.043Z,15.55
2018-05-26T02:37:41.569Z,15.55
2018-05-26T02:40:09.017Z,15.56
2018-05-26T02:42:36.445Z,15.56
2018-05-26T02:45:03.848Z,15.56
2018-05-26T02:47:31.285Z,15.54
2018-05-26T02:49:58.688Z,15.53
2018-05-26T02:52:26.201Z,15.52
2018-05-26T02:54:53.616Z,15.51
2018-05-26T02:57:21.109Z,15.51
2018-05-26T02:59:48.515Z,15.50
2018-05-26T03:02:16.012Z,15.47
2018-05-26T03:04:49.177Z,15.46
2018-05-26T03:07:22.161Z,15.44
2018-05-26T03:09:55.116Z,15.42
2018-05-26T03:12:28.035Z,15.41
2018-05-26T03:14:54.896Z,15.40
2018-05-26T03:17:22.305Z,15.38
2018-05-26T03:19:49.812Z,15.35
2018-05-26T03:22:17.264Z,15.33
2018-05-26T03:24:44.679Z,15.30
2018-05-26T03:27:12.177Z,15.29
2018-05-26T03:29:39.637Z,15.28
2018-05-26T03:32:07.093Z,15.26
2018-05-26T03:34:34.512Z,15.23
2018-05-26T03:37:02.009Z,15.23
2018-05-26T03:39:29.427Z,15.22
2018-05-26T03:41:56.844Z,15.21
2018-05-26T03:44:24.256Z,15.21
2018-05-26T03:46:51.720Z,15.22
2018-05-26T03:49:19.145Z,15.23
2018-05-26T03:51:46.556Z,15.24
2018-05-26T03:54:14.006Z,15.24
2018-05-26T03:56:53.352Z,15.25
2018-05-26T04:02:16.384Z,15.24
2018-05-26T04:04:43.820Z,15.25
2018-05-26T04:07:11.257Z,15.27
2018-05-26T04:09:38.684Z,15.31
2018-05-26T04:12:06.094Z,15.35
2018-05-26T04:14:33.525Z,15.39
2018-05-26T04:17:00.928Z,15.42
2018-05-26T04:19:28.360Z,15.45
2018-05-26T04:21:55.767Z,15.49
2018-05-26T04:24:23.184Z,15.52
2018-05-26T04:26:50.639Z,15.55
2018-05-26T04:29:18.066Z,15.57
2018-05-26T04:31:45.472Z,15.63
2018-05-26T04:34:12.900Z,15.66
2018-05-26T04:36:40.304Z,15.70
2018-05-26T04:39:07.720Z,15.73
2018-05-26T04:41:35.136Z,15.70
2018-05-26T04:44:02.571Z,15.73
2018-05-26T04:46:30.044Z,15.74
2018-05-26T04:48:57.529Z,15.79
2018-05-26T04:51:24.949Z,15.86
2018-05-26T04:53:52.372Z,15.89
2018-05-26T04:56:19.782Z,15.93
2018-05-26T04:58:47.208Z,15.96
2018-05-26T05:01:14.617Z,16.07
2018-05-26T05:03:42.058Z,16.14
2018-05-26T05:06:09.467Z,16.23
2018-05-26T05:08:36.884Z,16.31
2018-05-26T05:11:04.293Z,16.41
2018-05-26T05:13:31.708Z,16.52
2018-05-26T05:15:59.143Z,16.63
2018-05-26T05:18:26.588Z,16.71
2018-05-26T05:20:54.016Z,16.81
2018-05-26T05:23:21.424Z,16.88
2018-05-26T05:25:48.855Z,16.90
2018-05-26T05:28:16.279Z,16.94
2018-05-26T05:30:43.691Z,16.98
2018-05-26T05:33:11.111Z,17.04
2018-05-26T05:35:38.580Z,17.12
2018-05-26T05:38:06.027Z,17.20
2018-05-26T05:40:33.453Z,17.26
2018-05-26T05:43:00.868Z,17.33
2018-05-26T05:45:28.287Z,17.40
2018-05-26T05:47:55.689Z,17.49
2018-05-26T05:50:23.113Z,17.59
2018-05-26T05:52:50.531Z,17.71
2018-05-26T05:55:17.952Z,17.79
2018-05-26T05:57:45.375Z,17.76
2018-05-26T06:00:12.803Z,17.78
2018-05-26T06:02:40.204Z,17.80
2018-05-26T06:05:07.628Z,17.89
2018-05-26T06:07:35.031Z,17.98
2018-05-26T06:10:02.444Z,18.07
2018-05-26T06:12:29.863Z,18.18
2018-05-26T06:14:57.316Z,18.27
2018-05-26T06:17:24.691Z,18.37
2018-05-26T06:19:52.145Z,18.45
2018-05-26T06:22:19.561Z,18.58
2018-05-26T06:24:46.973Z,18.72
2018-05-26T06:27:14.385Z,18.89
2018-05-26T06:29:41.800Z,19.09
2018-05-26T06:32:09.208Z,19.26
2018-05-26T06:34:36.629Z,19.38
2018-05-26T06:37:04.041Z,19.56
2018-05-26T06:39:31.464Z,19.73
2018-05-26T06:41:58.868Z,19.88
2018-05-26T06:44:26.287Z,20.08
2018-05-26T06:46:53.697Z,20.28
2018-05-26T06:49:21.115Z,20.45
2018-05-26T06:51:48.537Z,20.65
2018-05-26T06:54:15.964Z,20.79
2018-05-26T06:56:43.379Z,20.95
2018-05-26T06:59:10.781Z,21.07
2018-05-26T07:01:38.197Z,21.18
2018-05-26T07:04:05.596Z,21.29
2018-05-26T07:06:33.065Z,21.49
2018-05-26T07:09:00.468Z,21.59
2018-05-26T07:11:27.889Z,21.70
2018-05-26T07:13:55.308Z,21.89
2018-05-26T07:16:22.724Z,22.06
2018-05-26T07:18:50.140Z,22.21
2018-05-26T07:21:17.568Z,22.43
2018-05-26T07:23:44.964Z,22.61
2018-05-26T07:26:17.447Z,22.74
2018-05-26T07:31:47.577Z,23.05
2018-05-26T07:34:33.361Z,23.13
2018-05-26T07:37:04.575Z,23.30
2018-05-26T07:39:33.134Z,23.50
2018-05-26T07:42:03.804Z,23.78
2018-05-26T07:44:37.716Z,24.08
2018-05-26T07:47:08.470Z,24.38
2018-05-26T07:49:39.087Z,24.62
2018-05-26T07:52:14.851Z,24.86
2018-05-26T07:54:46.196Z,24.96
2018-05-26T07:57:19.079Z,25.16
2018-05-26T07:59:46.643Z,25.34
2018-05-26T08:02:14.067Z,25.59
2018-05-26T08:04:41.479Z,25.96
2018-05-26T08:07:08.908Z,26.27
2018-05-26T08:09:36.320Z,26.58
2018-05-26T08:12:03.741Z,26.82
2018-05-26T08:14:31.161Z,27.08
2018-05-26T08:16:58.582Z,27.18
2018-05-26T08:19:25.999Z,27.21
2018-05-26T08:21:53.532Z,27.46
2018-05-26T08:24:20.961Z,27.62
2018-05-26T08:26:48.442Z,27.65
2018-05-26T08:29:15.908Z,27.67
2018-05-26T08:31:44.706Z,27.67
2018-05-26T08:34:12.112Z,27.69
2018-05-26T08:36:39.538Z,27.97
2018-05-26T08:39:06.957Z,28.11
2018-05-26T08:41:34.388Z,28.31
2018-05-26T08:44:01.798Z,28.42
2018-05-26T08:46:29.225Z,28.73
2018-05-26T08:48:56.656Z,29.01
2018-05-26T08:51:24.078Z,29.30
2018-05-26T08:53:51.502Z,29.42
2018-05-26T08:56:18.921Z,29.58
2018-05-26T08:58:46.397Z,29.60
2018-05-26T09:01:13.832Z,29.81
2018-05-26T09:03:41.308Z,29.84
2018-05-26T09:06:08.745Z,29.99
2018-05-26T09:08:36.168Z,30.20
2018-05-26T09:11:03.708Z,30.35
2018-05-26T09:13:31.129Z,30.36
2018-05-26T09:15:58.567Z,30.62
2018-05-26T09:18:25.984Z,30.82
2018-05-26T09:20:53.409Z,30.78
2018-05-26T09:23:20.846Z,30.79
2018-05-26T09:25:48.269Z,30.87
2018-05-26T09:28:15.683Z,30.94
2018-05-26T09:30:43.110Z,31.15
2018-05-26T09:33:10.676Z,31.53
2018-05-26T09:35:38.122Z,31.67
2018-05-26T09:38:05.550Z,31.56
2018-05-26T09:40:32.959Z,31.49
2018-05-26T09:43:00.496Z,31.50
2018-05-26T09:45:27.917Z,31.52
2018-05-26T09:47:55.332Z,31.60
2018-05-26T09:50:22.752Z,31.75
2018-05-26T09:52:50.181Z,31.91
2018-05-26T09:55:17.605Z,31.91
2018-05-26T09:57:45.073Z,31.96
2018-05-26T10:00:12.484Z,32.02
2018-05-26T10:02:39.914Z,32.19
2018-05-26T10:05:07.385Z,32.40
2018-05-26T10:07:34.846Z,32.35
2018-05-26T10:10:02.267Z,32.42
2018-05-26T10:12:29.701Z,32.51
2018-05-26T10:14:57.223Z,32.71
2018-05-26T10:17:24.681Z,32.85
2018-05-26T10:19:52.110Z,33.04
2018-05-26T10:22:19.574Z,33.27
2018-05-26T10:24:46.998Z,33.36
2018-05-26T10:27:14.488Z,33.18
2018-05-26T10:29:41.907Z,33.24
2018-05-26T10:32:09.381Z,33.42
2018-05-26T10:34:36.821Z,33.23
2018-05-26T10:37:04.248Z,33.22
2018-05-26T10:39:31.672Z,33.32
2018-05-26T10:41:59.101Z,33.35
2018-05-26T10:44:26.546Z,33.33
2018-05-26T10:46:54.000Z,33.29
2018-05-26T10:49:21.419Z,33.30
2018-05-26T10:51:48.945Z,33.14
2018-05-26T10:54:16.401Z,33.10
2018-05-26T10:56:43.848Z,33.28
2018-05-26T10:59:11.281Z,33.51
2018-05-26T11:01:38.760Z,33.78
2018-05-26T11:04:06.216Z,33.87
2018-05-26T11:06:45.559Z,34.15
2018-05-26T11:09:12.983Z,34.38
2018-05-26T11:11:40.413Z,34.54
2018-05-26T11:14:07.832Z,34.33
2018-05-26T11:16:35.282Z,34.34
2018-05-26T11:19:02.747Z,34.17
2018-05-26T11:21:30.141Z,34.16
2018-05-26T11:23:57.650Z,34.19
2018-05-26T11:26:24.976Z,34.34
2018-05-26T11:28:52.459Z,34.45
2018-05-26T11:31:19.859Z,34.29
2018-05-26T11:33:47.290Z,34.34
2018-05-26T11:36:14.709Z,34.32
2018-05-26T11:38:42.156Z,34.26
2018-05-26T11:41:09.581Z,34.34
2018-05-26T11:43:37.028Z,33.76
2018-05-26T11:46:04.441Z,33.24
2018-05-26T11:48:31.888Z,32.92
2018-05-26T11:50:59.300Z,33.17
2018-05-26T11:53:26.763Z,33.29
2018-05-26T11:55:54.170Z,33.60
2018-05-26T11:58:21.607Z,33.94
2018-05-26T12:00:49.032Z,34.08
2018-05-26T12:03:16.470Z,34.10
2018-05-26T12:05:43.884Z,34.17
2018-05-26T12:08:11.324Z,34.19
2018-05-26T12:10:38.813Z,34.33
2018-05-26T12:13:06.249Z,34.42
2018-05-26T12:15:33.660Z,34.60
2018-05-26T12:18:01.149Z,34.63
2018-05-26T12:20:28.564Z,34.81
2018-05-26T12:22:55.987Z,35.14
2018-05-26T12:25:23.437Z,35.32
2018-05-26T12:27:50.869Z,35.18
2018-05-26T12:30:18.328Z,34.72
2018-05-26T12:32:45.774Z,34.80
2018-05-26T12:35:13.188Z,34.50
2018-05-26T12:37:40.691Z,34.26
2018-05-26T12:40:08.107Z,34.22
2018-05-26T12:42:35.541Z,34.52
2018-05-26T12:45:02.964Z,34.51
2018-05-26T12:47:30.384Z,34.70
2018-05-26T12:49:57.807Z,35.07
2018-05-26T12:52:25.233Z,35.16
2018-05-26T12:54:52.647Z,35.34
2018-05-26T12:57:20.145Z,35.40
2018-05-26T12:59:47.592Z,35.45
2018-05-26T13:02:15.016Z,35.21
2018-05-26T13:04:42.502Z,35.17
2018-05-26T13:07:09.928Z,35.22
2018-05-26T13:09:37.552Z,35.00
2018-05-26T13:12:04.980Z,34.91
2018-05-26T13:14:32.408Z,34.79
2018-05-26T13:17:00.634Z,34.73
2018-05-26T13:19:28.062Z,34.73
2018-05-26T13:21:55.649Z,34.59
2018-05-26T13:24:23.064Z,34.61
2018-05-26T13:26:50.480Z,34.59
2018-05-26T13:29:17.908Z,34.64
2018-05-26T13:31:45.578Z,34.43
2018-05-26T13:34:13.000Z,34.52
2018-05-26T13:36:40.417Z,34.50
2018-05-26T13:39:07.850Z,34.39
2018-05-26T13:41:35.280Z,34.46
2018-05-26T13:44:02.708Z,34.19
2018-05-26T13:46:30.128Z,34.07
2018-05-26T13:48:57.612Z,34.14
2018-05-26T13:51:25.047Z,34.34
2018-05-26T13:53:52.469Z,34.55
2018-05-26T13:56:19.935Z,34.62
2018-05-26T13:58:47.449Z,34.43
2018-05-26T14:01:15.064Z,34.28
2018-05-26T14:03:42.481Z,34.19
2018-05-26T14:06:09.895Z,34.21
2018-05-26T14:08:37.340Z,34.14
2018-05-26T14:11:04.768Z,34.22
2018-05-26T14:13:32.276Z,34.26
2018-05-26T14:15:59.729Z,34.22
2018-05-26T14:18:27.136Z,33.87
2018-05-26T14:20:54.553Z,33.35
2018-05-26T14:23:21.987Z,33.19
2018-05-26T14:25:49.464Z,33.00
2018-05-26T14:28:16.908Z,32.92
2018-05-26T14:30:44.389Z,32.89
2018-05-26T14:33:11.819Z,32.85
2018-05-26T14:35:39.244Z,32.78
2018-05-26T14:38:06.746Z,32.54
2018-05-26T14:40:34.197Z,32.39
2018-05-26T14:43:01.617Z,32.32
2018-05-26T14:45:29.096Z,32.16
2018-05-26T14:47:56.504Z,32.09
2018-05-26T14:50:23.929Z,32.19
2018-05-26T14:52:51.370Z,32.13
2018-05-26T14:55:18.818Z,32.02
2018-05-26T14:57:46.236Z,31.83
2018-05-26T15:00:13.672Z,31.55
2018-05-26T15:02:41.089Z,31.42
2018-05-26T15:05:08.513Z,31.36
2018-05-26T15:07:35.930Z,31.29
2018-05-26T15:10:03.356Z,31.37
2018-05-26T15:12:30.801Z,31.47
2018-05-26T15:14:58.228Z,31.45
2018-05-26T15:17:25.644Z,31.56
2018-05-26T15:19:53.073Z,31.44
2018-05-26T15:22:20.533Z,31.41
2018-05-26T15:24:47.982Z,31.43
2018-05-26T15:27:15.400Z,31.26
2018-05-26T15:29:42.823Z,31.22
2018-05-26T15:32:10.344Z,31.15
2018-05-26T15:34:37.774Z,31.05
2018-05-26T15:37:05.184Z,31.02
2018-05-26T15:39:32.616Z,30.91
2018-05-26T15:42:00.039Z,30.66
2018-05-26T15:44:27.468Z,30.52
2018-05-26T15:46:54.977Z,30.55
2018-05-26T15:49:22.412Z,30.52
2018-05-26T15:51:49.844Z,30.46
2018-05-26T15:54:17.280Z,30.37
2018-05-26T15:56:44.814Z,30.28
2018-05-26T15:59:12.229Z,30.18
2018-05-26T16:01:39.653Z,30.07
2018-05-26T16:04:07.068Z,29.96
2018-05-26T16:06:34.524Z,29.75
2018-05-26T16:09:01.973Z,29.60
2018-05-26T16:11:29.430Z,29.48
2018-05-26T16:13:56.839Z,29.30
2018-05-26T16:16:24.260Z,29.25
2018-05-26T16:18:51.704Z,29.16
2018-05-26T16:21:19.152Z,29.05
2018-05-26T16:23:46.577Z,28.98
2018-05-26T16:26:14.000Z,28.83
2018-05-26T16:28:41.468Z,28.70
2018-05-26T16:31:08.897Z,28.70
2018-05-26T16:33:36.311Z,28.66
2018-05-26T16:36:03.785Z,28.54
2018-05-26T16:38:31.200Z,28.33
2018-05-26T16:40:58.621Z,28.15
2018-05-26T16:43:26.043Z,28.02
2018-05-26T16:45:53.468Z,28.00
2018-05-26T16:48:20.879Z,28.00
2018-05-26T16:50:48.332Z,27.93
2018-05-26T16:53:15.753Z,27.90
2018-05-26T16:55:43.177Z,27.75
2018-05-26T16:58:10.596Z,27.52
2018-05-26T17:00:38.024Z,27.25
2018-05-26T17:03:05.431Z,27.13
2018-05-26T17:05:32.856Z,27.11
2018-05-26T17:08:00.272Z,27.06
2018-05-26T17:10:27.687Z,27.00
2018-05-26T17:12:55.121Z,27.00
2018-05-26T17:15:22.554Z,27.05
2018-05-26T17:17:49.975Z,27.07
2018-05-26T17:20:17.404Z,27.10
2018-05-26T17:22:44.833Z,27.14
2018-05-26T17:25:12.253Z,27.08
2018-05-26T17:27:39.689Z,26.99
2018-05-26T17:30:07.120Z,26.96
2018-05-26T17:32:34.543Z,27.17
2018-05-26T17:35:01.972Z,27.44
2018-05-26T17:37:29.405Z,27.55
2018-05-26T17:39:56.833Z,27.84
2018-05-26T17:42:24.264Z,28.02
2018-05-26T17:44:51.692Z,27.88
2018-05-26T17:47:19.112Z,27.81
2018-05-26T17:49:46.535Z,27.54
2018-05-26T17:52:13.959Z,27.48
2018-05-26T17:54:41.409Z,27.64
2018-05-26T17:57:08.836Z,27.51
2018-05-26T17:59:36.256Z,27.27
2018-05-26T18:02:03.692Z,27.06
2018-05-26T18:04:31.108Z,26.78
2018-05-26T18:06:58.533Z,26.58
2018-05-26T18:09:25.948Z,26.46
2018-05-26T18:11:53.385Z,26.33
2018-05-26T18:14:20.800Z,26.33
2018-05-26T18:16:48.221Z,26.30
2018-05-26T18:19:15.640Z,26.15
2018-05-26T18:21:43.060Z,26.02
2018-05-26T18:24:10.481Z,25.90
2018-05-26T18:26:37.901Z,25.75
2018-05-26T18:29:05.344Z,25.60
2018-05-26T18:31:32.778Z,25.57
2018-05-26T18:34:00.190Z,25.73
2018-05-26T18:36:27.608Z,25.96
2018-05-26T18:38:55.037Z,26.14
2018-05-26T18:41:22.473Z,26.29
2018-05-26T18:43:49.895Z,26.44
2018-05-26T18:46:17.332Z,26.73
2018-05-26T18:48:44.817Z,26.91
2018-05-26T18:51:12.200Z,27.02
2018-05-26T18:53:39.628Z,26.99
2018-05-26T18:56:07.064Z,27.00
2018-05-26T18:58:34.482Z,27.03
2018-05-26T19:01:01.915Z,27.00
2018-05-26T19:03:29.363Z,27.01
2018-05-26T19:05:56.849Z,26.90
2018-05-26T19:08:24.260Z,26.91
2018-05-26T19:10:51.675Z,26.94
2018-05-26T19:13:19.109Z,26.97
2018-05-26T19:15:46.524Z,26.86
2018-05-26T19:18:13.947Z,26.82
2018-05-26T19:20:41.400Z,26.86
2018-05-26T19:23:08.825Z,26.85
2018-05-26T19:25:36.241Z,26.80
2018-05-26T19:28:03.659Z,26.69
2018-05-26T19:30:31.089Z,26.54
2018-05-26T19:32:58.511Z,26.44
2018-05-26T19:35:25.924Z,26.45
2018-05-26T19:37:53.344Z,26.51
2018-05-26T19:40:20.778Z,26.57
2018-05-26T19:42:48.196Z,26.55
2018-05-26T19:45:15.615Z,26.55
2018-05-26T19:47:43.045Z,26.55
2018-05-26T19:50:10.522Z,26.55
2018-05-26T19:52:37.879Z,26.53
2018-05-26T19:55:05.300Z,26.46
2018-05-26T19:57:32.725Z,26.40
2018-05-26T20:00:00.157Z,26.33
2018-05-26T20:02:27.576Z,26.32
2018-05-26T20:04:54.988Z,26.25
2018-05-26T20:07:22.421Z,26.18
2018-05-26T20:09:49.844Z,26.13
2018-05-26T20:12:17.264Z,26.12
2018-05-26T20:14:44.697Z,26.10
2018-05-26T20:17:12.131Z,26.09
2018-05-26T20:19:39.553Z,26.07
2018-05-26T20:22:06.982Z,26.07
2018-05-26T20:24:34.399Z,26.03
2018-05-26T20:27:01.816Z,26.00
2018-05-26T20:29:29.228Z,25.97
2018-05-26T20:31:56.657Z,25.97
2018-05-26T20:34:24.076Z,25.93
2018-05-26T20:36:51.505Z,25.83
2018-05-26T20:39:18.924Z,25.69
2018-05-26T20:41:46.369Z,25.62
2018-05-26T20:44:13.782Z,25.47
2018-05-26T20:46:41.199Z,25.28
2018-05-26T20:49:08.620Z,25.23
2018-05-26T20:51:36.032Z,25.27
2018-05-26T20:54:03.452Z,25.32
2018-05-26T20:56:30.868Z,25.22
2018-05-26T20:58:58.292Z,25.24
2018-05-26T21:01:25.717Z,25.26
2018-05-26T21:03:53.139Z,25.00
2018-05-26T21:06:20.552Z,24.50
2018-05-26T21:08:47.994Z,23.94
2018-05-26T21:11:15.399Z,23.57
2018-05-26T21:13:42.829Z,23.35
2018-05-26T21:16:10.249Z,23.03
2018-05-26T21:18:37.675Z,22.83
2018-05-26T21:21:05.099Z,22.62
2018-05-26T21:23:32.525Z,22.52
2018-05-26T21:25:59.950Z,22.36
2018-05-26T21:28:27.387Z,22.28
2018-05-26T21:30:54.795Z,22.21
2018-05-26T21:33:22.221Z,22.00
2018-05-26T21:35:49.632Z,21.85
2018-05-26T21:38:17.058Z,21.73
2018-05-26T21:40:44.465Z,21.64
2018-05-26T21:43:11.882Z,21.50
2018-05-26T21:45:39.308Z,21.37
2018-05-26T21:48:06.732Z,21.29
2018-05-26T21:50:34.146Z,21.28
2018-05-26T21:53:01.577Z,21.22
2018-05-26T21:55:28.997Z,21.17
2018-05-26T21:57:56.441Z,21.09
2018-05-26T22:00:23.810Z,20.95
2018-05-26T22:02:51.224Z,20.85
2018-05-26T22:05:18.647Z,20.82
2018-05-26T22:07:46.058Z,20.77
2018-05-26T22:10:13.464Z,20.86
2018-05-26T22:12:40.898Z,20.87
2018-05-26T22:15:08.309Z,20.81
2018-05-26T22:17:35.725Z,20.80
2018-05-26T22:20:03.143Z,20.70
2018-05-26T22:22:30.552Z,20.72
2018-05-26T22:24:57.972Z,20.62
2018-05-26T22:27:25.392Z,20.56
2018-05-26T22:29:52.819Z,20.46
2018-05-26T22:32:20.230Z,20.35
2018-05-26T22:34:47.645Z,20.32
2018-05-26T22:37:15.052Z,20.34
2018-05-26T22:39:42.469Z,20.35
2018-05-26T22:42:09.880Z,20.39
2018-05-26T22:44:37.304Z,20.34
2018-05-26T22:47:04.720Z,20.27
2018-05-26T22:49:32.141Z,20.31
2018-05-26T22:51:59.553Z,20.34
2018-05-26T22:54:26.972Z,20.25
2018-05-26T22:56:54.391Z,20.33
2018-05-26T22:59:21.806Z,20.36
2018-05-26T23:01:49.216Z,20.36
2018-05-26T23:04:16.628Z,20.29
2018-05-26T23:06:44.031Z,20.21
2018-05-26T23:09:11.452Z,20.14
2018-05-26T23:11:38.876Z,20.14
2018-05-26T23:14:06.297Z,20.12
2018-05-26T23:16:33.712Z,20.08
2018-05-26T23:19:01.128Z,20.03
2018-05-26T23:21:28.537Z,19.93
2018-05-26T23:23:55.962Z,19.95
2018-05-26T23:26:23.378Z,19.95
2018-05-26T23:28:50.805Z,19.85
2018-05-26T23:31:18.213Z,19.70
2018-05-26T23:33:45.628Z,19.74
2018-05-26T23:36:13.040Z,19.78
2018-05-26T23:38:40.457Z,19.82
2018-05-26T23:41:07.877Z,19.83
2018-05-26T23:43:35.289Z,19.82
2018-05-26T23:46:02.697Z,19.76
2018-05-26T23:48:30.170Z,19.71
2018-05-26T23:50:57.524Z,19.70
2018-05-26T23:53:24.983Z,19.66
2018-05-26T23:55:52.389Z,19.62
2018-05-26T23:58:19.795Z,19.58
